Time;durP1;ratioP1;P1;durP2;ratioP2;P2;SDS_P1;SDS_P2;PMS_P1;PMS_P2;Temp;Humidity;BMP_temperature;BMP_pressure;BME280_temperature;BME280_humidity;BME280_pressure;Samples;Min_cycle;Max_cycle;Signal;HPM_P1;HPM_P2
2022/07/11 00:02:03;;;;;;;1.70;1.60;;;;;;;15.68;73.38;155390.03;5072128;28;20541;-79
2022/07/11 00:04:31;;;;;;;3.90;1.90;;;;;;;15.69;73.50;155391.34;5105472;28;20887;-79
2022/07/11 00:06:58;;;;;;;1.93;1.70;;;;;;;15.72;73.58;155399.16;5073884;28;20481;-79
2022/07/11 00:09:24;;;;;;;2.27;1.87;;;;;;;15.77;73.74;155413.47;5106337;28;20537;-79
2022/07/11 00:11:51;;;;;;;2.70;1.90;;;;;;;15.79;73.51;155418.63;5106227;27;20468;-79
2022/07/11 00:14:19;;;;;;;1.90;1.70;;;;;;;15.81;74.00;155423.81;5079845;28;20545;-79
2022/07/11 00:16:46;;;;;;;2.20;2.00;;;;;;;15.82;73.78;155426.44;5072343;28;20442;-79
2022/07/11 00:19:12;;;;;;;2.00;1.80;;;;;;;15.85;73.56;155432.94;5105038;28;21090;-78
2022/07/11 00:21:41;;;;;;;2.27;2.03;;;;;;;15.88;73.68;155439.44;5072651;28;20541;-79
2022/07/11 00:24:08;;;;;;;1.53;1.43;;;;;;;15.89;73.69;155442.00;5105131;28;20448;-79
2022/07/11 00:26:35;;;;;;;2.70;1.73;;;;;;;15.90;73.77;155445.94;5071561;28;20537;-79
2022/07/11 00:29:02;;;;;;;1.90;1.70;;;;;;;15.89;73.53;155442.00;5075633;28;20429;-79
2022/07/11 00:31:28;;;;;;;3.67;1.97;;;;;;;15.88;73.48;155440.75;5070766;28;20446;-79
2022/07/11 00:33:55;;;;;;;2.10;1.90;;;;;;;15.81;74.06;155422.53;5105351;28;20516;-79
2022/07/11 00:36:22;;;;;;;2.30;2.10;;;;;;;15.74;74.66;155405.66;5104467;28;20523;-79
2022/07/11 00:38:50;;;;;;;2.50;2.30;;;;;;;15.73;74.98;155403.03;5105139;28;20453;-79
2022/07/11 00:41:18;;;;;;;2.60;2.30;;;;;;;15.66;75.19;155384.84;5081764;28;20499;-78
2022/07/11 00:43:52;;;;;;;2.80;2.50;;;;;;;15.66;75.93;155383.53;5073921;28;20442;-79
2022/07/11 00:46:18;;;;;;;2.13;1.93;;;;;;;15.65;75.65;155382.22;5085700;28;20460;-79
2022/07/11 00:48:45;;;;;;;2.30;2.10;;;;;;;15.65;75.51;155382.22;5072932;28;20541;-79
2022/07/11 00:51:12;;;;;;;2.60;2.17;;;;;;;15.62;75.59;155374.41;5070874;28;20577;-79
2022/07/11 00:53:40;;;;;;;2.87;2.30;;;;;;;15.56;75.96;155358.84;5072041;28;20565;-79
2022/07/11 00:56:08;;;;;;;3.67;2.47;;;;;;;15.54;76.88;155353.63;5070899;28;20442;-79
2022/07/11 00:58:36;;;;;;;2.30;2.10;;;;;;;15.53;76.26;155349.75;5070864;28;20492;-78
2022/07/11 01:01:03;;;;;;;3.70;2.77;;;;;;;15.50;77.61;155343.25;5071735;28;20548;-79
2022/07/11 01:03:30;;;;;;;3.30;3.00;;;;;;;15.48;76.81;155338.06;5075846;28;20536;-79
2022/07/11 01:05:57;;;;;;;2.90;2.63;;;;;;;15.48;77.01;155338.06;5073589;28;20442;-79
2022/07/11 01:08:23;;;;;;;3.33;2.60;;;;;;;15.46;76.65;155331.56;5104243;28;20457;-79
2022/07/11 01:10:50;;;;;;;3.10;2.80;;;;;;;15.44;77.59;155327.59;5079477;28;20442;-79
2022/07/11 01:13:18;;;;;;;3.30;2.43;;;;;;;15.41;77.55;155319.78;5104256;28;20476;-79
2022/07/11 01:15:45;;;;;;;3.43;2.40;;;;;;;15.37;77.70;155309.41;5071852;28;20500;-79
2022/07/11 01:18:12;;;;;;;2.70;2.50;;;;;;;15.35;78.16;155302.91;5070081;28;20453;-79
2022/07/11 01:20:38;;;;;;;2.70;2.50;;;;;;;15.35;78.68;155304.22;5084681;28;20445;-79
2022/07/11 01:23:07;;;;;;;4.30;2.50;;;;;;;15.33;78.80;155298.97;5086770;28;20430;-75
2022/07/11 01:25:35;;;;;;;3.77;2.80;;;;;;;15.32;78.82;155296.41;5068861;28;20449;-75
2022/07/11 01:28:02;;;;;;;4.83;3.00;;;;;;;15.33;78.68;155298.97;5070019;28;20555;-76
2022/07/11 01:30:31;;;;;;;3.23;2.97;;;;;;;15.33;79.00;155297.72;5104327;28;20837;-76
2022/07/11 01:32:59;;;;;;;7.20;2.70;;;;;;;15.30;78.69;155291.22;5103112;28;20829;-76
2022/07/11 01:35:28;;;;;;;2.97;2.67;;;;;;;15.31;78.91;155292.50;5086920;28;20453;-76
2022/07/11 01:37:54;;;;;;;3.00;2.67;;;;;;;15.29;78.38;155288.63;5069799;28;20537;-75
2022/07/11 01:40:22;;;;;;;3.33;2.70;;;;;;;15.28;79.42;155286.00;5104378;28;20446;-76
2022/07/11 01:42:49;;;;;;;2.73;2.53;;;;;;;15.25;79.55;155279.50;5070274;28;20774;-76
2022/07/11 01:45:16;;;;;;;3.50;2.57;;;;;;;15.22;79.47;155270.44;5072139;28;20537;-76
2022/07/11 01:47:43;;;;;;;3.10;2.80;;;;;;;15.23;80.04;155273.00;5069552;28;20546;-75
2022/07/11 01:50:10;;;;;;;2.40;2.20;;;;;;;15.21;79.89;155267.81;5071812;28;20964;-75
2022/07/11 01:52:37;;;;;;;3.93;3.63;;;;;;;15.22;80.11;155270.44;5101301;28;20564;-75
2022/07/11 01:55:04;;;;;;;4.23;3.03;;;;;;;15.21;79.84;155269.13;5083581;28;20449;-76
2022/07/11 01:57:32;;;;;;;2.47;2.27;;;;;;;15.21;80.17;155267.81;5071547;28;20438;-76
2022/07/11 01:59:58;;;;;;;3.17;2.70;;;;;;;15.22;80.11;155270.44;5071845;28;20537;-76
2022/07/11 02:02:25;;;;;;;2.83;2.63;;;;;;;15.20;80.36;155265.19;5103080;28;20473;-75
2022/07/11 02:04:52;;;;;;;2.63;2.43;;;;;;;15.18;80.26;155261.31;5070092;28;20430;-76
2022/07/11 02:08:11;;;;;;;3.20;2.90;;;;;;;15.18;80.73;155260.00;5071246;28;20438;-76
2022/07/11 02:10:06;;;;;;;4.30;2.90;;;;;;;15.17;80.31;155257.41;5069755;28;20796;-76
2022/07/11 02:12:34;;;;;;;4.20;2.93;;;;;;;15.14;80.62;155249.66;5069392;28;20841;-75
2022/07/11 02:15:01;;;;;;;6.50;3.50;;;;;;;15.13;80.71;155247.03;5102268;28;20476;-76
2022/07/11 02:17:27;;;;;;;3.03;2.73;;;;;;;15.15;81.24;155252.22;5094878;28;20442;-75
2022/07/11 02:19:54;;;;;;;3.23;2.93;;;;;;;15.14;81.20;155249.66;5050358;28;21014;-76
2022/07/11 02:22:21;;;;;;;2.73;2.53;;;;;;;15.15;81.12;155252.22;5095737;28;20425;-75
2022/07/11 02:24:48;;;;;;;3.67;2.43;;;;;;;15.14;81.13;155249.66;5069902;28;20442;-76
2022/07/11 02:27:14;;;;;;;3.37;2.80;;;;;;;15.14;81.18;155249.66;5105971;28;20771;-76
2022/07/11 02:29:42;;;;;;;3.37;3.07;;;;;;;15.17;81.66;155257.41;5081669;28;21027;-76
2022/07/11 02:32:09;;;;;;;3.27;2.83;;;;;;;15.18;81.52;155260.00;5100982;28;20454;-76
2022/07/11 02:34:36;;;;;;;3.13;2.83;;;;;;;15.17;81.58;155258.72;5103337;28;20444;-76
2022/07/11 02:37:03;;;;;;;3.70;2.63;;;;;;;15.19;81.69;155262.63;5070402;28;20532;-75
2022/07/11 02:39:29;;;;;;;3.40;3.10;;;;;;;15.20;81.54;155265.19;5070479;28;20487;-75
2022/07/11 02:41:56;;;;;;;3.97;3.30;;;;;;;15.20;81.83;155265.19;5071637;28;20446;-76
2022/07/11 02:44:23;;;;;;;3.07;2.77;;;;;;;15.21;81.90;155269.13;5072081;28;20443;-76
2022/07/11 02:46:51;;;;;;;3.00;2.70;;;;;;;15.24;82.28;155275.63;5081237;28;20920;-75
2022/07/11 02:49:18;;;;;;;3.57;3.27;;;;;;;15.21;82.32;155269.13;5107210;28;20468;-75
2022/07/11 02:51:45;;;;;;;3.10;2.63;;;;;;;15.24;82.64;155275.63;5104956;28;20456;-76
2022/07/11 02:54:11;;;;;;;3.40;2.60;;;;;;;15.25;82.55;155279.50;5074689;28;21053;-75
2022/07/11 02:56:38;;;;;;;3.50;3.20;;;;;;;15.24;82.93;155276.94;5075133;28;20548;-75
2022/07/11 02:59:05;;;;;;;2.90;2.70;;;;;;;15.24;82.79;155276.94;5072685;28;20474;-76
2022/07/11 03:01:31;;;;;;;3.40;3.10;;;;;;;15.24;82.36;155275.63;5077577;28;20453;-75
2022/07/11 03:03:59;;;;;;;3.80;2.87;;;;;;;15.23;82.69;155273.00;5082075;28;21005;-75
2022/07/11 03:06:26;;;;;;;3.00;2.70;;;;;;;15.24;83.32;155275.63;5074029;28;20497;-76
2022/07/11 03:08:53;;;;;;;3.20;2.90;;;;;;;15.23;82.86;155273.00;5072253;28;20535;-76
2022/07/11 03:11:20;;;;;;;3.50;2.97;;;;;;;15.25;83.59;155278.19;5074559;28;20556;-75
2022/07/11 03:13:47;;;;;;;4.67;3.23;;;;;;;15.26;83.07;155280.81;5074315;28;20496;-75
2022/07/11 03:16:13;;;;;;;3.87;3.53;;;;;;;15.27;83.13;155284.69;5073476;28;20536;-76
2022/07/11 03:18:40;;;;;;;3.43;3.13;;;;;;;15.27;83.23;155282.13;5072188;28;20454;-76
2022/07/11 03:21:09;;;;;;;4.37;3.20;;;;;;;15.27;83.44;155283.44;5103583;28;20763;-76
2022/07/11 03:23:35;;;;;;;6.33;3.43;;;;;;;15.28;83.20;155286.00;5061319;28;20787;-75
2022/07/11 03:26:02;;;;;;;3.07;2.80;;;;;;;15.29;83.43;155287.31;5074417;28;20457;-76
2022/07/11 03:28:29;;;;;;;4.43;4.03;;;;;;;15.27;83.66;155284.69;5103563;28;20454;-75
2022/07/11 03:30:56;;;;;;;3.80;3.50;;;;;;;15.25;83.25;155278.19;5074424;28;20529;-75
2022/07/11 03:33:23;;;;;;;3.70;3.37;;;;;;;15.27;83.56;155284.69;5073810;28;20466;-75
2022/07/11 03:35:49;;;;;;;3.63;3.33;;;;;;;15.29;83.49;155287.31;5094717;28;20524;-75
2022/07/11 03:38:20;;;;;;;6.00;3.70;;;;;;;15.29;83.61;155288.63;5078154;28;20454;-76
2022/07/11 03:40:48;;;;;;;3.90;3.30;;;;;;;15.31;83.80;155293.78;5073276;28;20446;-79
2022/07/11 03:43:15;;;;;;;3.53;3.23;;;;;;;15.33;84.28;155298.97;5072027;28;20948;-79
2022/07/11 03:45:42;;;;;;;3.87;3.47;;;;;;;15.32;84.26;155296.41;5106342;28;20448;-79
2022/07/11 03:48:08;;;;;;;3.77;3.47;;;;;;;15.34;83.49;155301.59;5070314;28;20489;-79
2022/07/11 03:50:36;;;;;;;3.97;3.57;;;;;;;15.37;83.62;155308.09;5081425;28;20467;-79
2022/07/11 03:53:03;;;;;;;3.93;3.60;;;;;;;15.38;84.85;155310.72;5126972;27;20480;-79
2022/07/11 03:55:31;;;;;;;6.20;3.87;;;;;;;15.36;85.49;155306.78;5077615;28;20777;-79
2022/07/11 03:57:58;;;;;;;4.60;4.20;;;;;;;15.33;84.73;155297.72;5071266;28;20596;-79
2022/07/11 04:00:25;;;;;;;4.80;4.20;;;;;;;15.35;86.21;155304.22;5105950;28;20453;-79
2022/07/11 04:02:52;;;;;;;4.70;4.30;;;;;;;15.34;86.64;155301.59;5073561;28;20427;-79
2022/07/11 04:05:18;;;;;;;4.37;3.97;;;;;;;15.32;86.94;155295.09;5072543;28;20442;-79
2022/07/11 04:07:45;;;;;;;4.53;4.13;;;;;;;15.35;86.77;155302.91;5107564;27;20838;-79
2022/07/11 04:10:12;;;;;;;5.17;4.47;;;;;;;15.34;86.40;155300.28;5073495;28;20448;-78
2022/07/11 04:12:40;;;;;;;5.07;4.57;;;;;;;15.38;87.02;155311.97;5072083;28;20454;-79
2022/07/11 04:15:08;;;;;;;5.10;4.70;;;;;;;15.37;87.15;155309.41;5090875;28;20438;-79
2022/07/11 04:17:35;;;;;;;4.40;4.00;;;;;;;15.39;87.08;155314.59;5105627;28;20579;-79
2022/07/11 04:20:02;;;;;;;4.67;4.27;;;;;;;15.40;87.37;155317.22;5105647;28;20444;-79
2022/07/11 04:22:29;;;;;;;4.70;4.30;;;;;;;15.41;87.56;155319.78;5074317;28;20784;-79
2022/07/11 04:24:55;;;;;;;4.90;4.40;;;;;;;15.38;87.40;155311.97;5071897;28;20460;-79
2022/07/11 04:27:24;;;;;;;4.67;4.20;;;;;;;15.41;87.28;155319.78;5073527;28;20775;-79
2022/07/11 04:29:52;;;;;;;5.40;4.90;;;;;;;15.41;87.48;155319.78;5072142;28;20965;-79
2022/07/11 04:32:19;;;;;;;4.47;3.93;;;;;;;15.44;87.46;155327.59;5072704;28;20438;-79
2022/07/11 04:34:46;;;;;;;4.70;4.20;;;;;;;15.46;87.26;155331.56;5104375;28;21291;-79
2022/07/11 04:37:13;;;;;;;4.10;3.70;;;;;;;15.49;87.37;155339.38;5105161;28;20446;-79
2022/07/11 04:39:40;;;;;;;4.97;4.47;;;;;;;15.48;86.99;155338.06;5075959;28;20434;-79
2022/07/11 04:42:07;;;;;;;5.40;4.50;;;;;;;15.49;86.97;155340.63;5068950;28;20544;-79
2022/07/11 04:44:34;;;;;;;5.27;3.77;;;;;;;15.53;87.61;155351.06;5088027;28;20422;-79
2022/07/11 04:47:02;;;;;;;5.43;4.90;;;;;;;15.52;87.67;155348.44;5071872;28;20571;-78
2022/07/11 04:49:30;;;;;;;5.47;4.87;;;;;;;15.56;87.67;155358.84;5071719;28;20453;-79
2022/07/11 04:51:57;;;;;;;4.60;4.20;;;;;;;15.56;87.61;155358.84;5072199;28;20504;-79
2022/07/11 04:54:24;;;;;;;4.80;4.30;;;;;;;15.58;87.68;155364.03;5104366;28;20895;-79
2022/07/11 04:56:51;;;;;;;5.90;4.80;;;;;;;15.59;87.79;155365.34;5116835;27;20807;-79
2022/07/11 04:59:17;;;;;;;4.70;3.80;;;;;;;15.58;87.41;155364.03;5088043;28;20481;-79
2022/07/11 05:01:44;;;;;;;5.60;3.80;;;;;;;15.59;87.05;155365.34;5066051;28;20545;-79
2022/07/11 05:04:12;;;;;;;4.90;3.97;;;;;;;15.63;87.04;155375.72;5071091;28;20446;-79
2022/07/11 05:06:39;;;;;;;4.87;3.70;;;;;;;15.63;86.67;155377.03;5072282;28;20877;-79
2022/07/11 05:09:07;;;;;;;4.40;3.37;;;;;;;15.60;86.26;155369.22;5071788;28;20450;-78
2022/07/11 05:11:34;;;;;;;4.80;3.47;;;;;;;15.62;86.32;155374.41;5072327;28;20434;-79
2022/07/11 05:14:01;;;;;;;4.53;3.90;;;;;;;15.64;86.45;155379.66;5074713;28;20460;-79
2022/07/11 05:16:28;;;;;;;4.47;3.70;;;;;;;15.68;86.26;155388.72;5125205;27;20448;-79
2022/07/11 05:18:54;;;;;;;4.17;3.77;;;;;;;15.75;86.64;155408.22;5083683;28;20444;-79
2022/07/11 05:21:23;;;;;;;4.33;3.70;;;;;;;15.82;86.34;155426.44;5071099;28;20536;-79
2022/07/11 05:23:50;;;;;;;4.87;4.30;;;;;;;15.84;86.41;155430.31;5069067;28;20536;-79
2022/07/11 05:26:17;;;;;;;4.40;3.83;;;;;;;15.87;86.35;155438.13;5104876;28;21160;-79
2022/07/11 05:28:44;;;;;;;4.20;3.80;;;;;;;16.00;85.81;155470.63;5069223;28;20878;-79
2022/07/11 05:31:11;;;;;;;4.87;4.37;;;;;;;16.05;86.07;155483.63;5082148;28;20488;-79
2022/07/11 05:33:38;;;;;;;5.53;5.03;;;;;;;16.12;85.60;155501.88;5086859;28;20957;-79
2022/07/11 05:36:05;;;;;;;4.77;4.37;;;;;;;16.21;84.67;155525.25;5071687;28;20822;-79
2022/07/11 05:38:33;;;;;;;5.40;4.03;;;;;;;16.28;84.81;155543.47;5072771;28;20474;-79
2022/07/11 05:41:00;;;;;;;5.10;4.60;;;;;;;16.32;84.24;155555.16;5072131;28;20446;-79
2022/07/11 05:43:28;;;;;;;5.00;4.30;;;;;;;16.35;84.64;155562.97;5072036;28;20433;-79
2022/07/11 05:45:55;;;;;;;5.53;5.03;;;;;;;16.38;84.49;155569.47;5072049;28;20441;-79
2022/07/11 05:48:22;;;;;;;5.03;4.63;;;;;;;16.43;84.39;155582.47;5076519;28;20535;-79
2022/07/11 05:50:48;;;;;;;5.17;4.73;;;;;;;16.39;84.55;155573.34;5124593;28;20478;-79
2022/07/11 05:53:15;;;;;;;5.00;4.30;;;;;;;16.54;84.44;155609.84;5119597;28;20457;-79
2022/07/11 05:55:43;;;;;;;5.80;4.17;;;;;;;16.45;84.84;155587.66;5071392;28;20898;-79
2022/07/11 05:58:10;;;;;;;3.73;3.43;;;;;;;16.40;85.15;155575.97;5068572;28;20512;-79
2022/07/11 06:00:36;;;;;;;4.13;3.60;;;;;;;16.42;85.48;155579.88;5070753;28;20500;-79
2022/07/11 06:03:03;;;;;;;6.40;4.27;;;;;;;16.46;85.42;155590.28;5070900;28;20450;-79
2022/07/11 06:05:30;;;;;;;4.37;3.97;;;;;;;16.50;84.54;155600.66;5072023;28;20456;-79
2022/07/11 06:10:42;;;;;;;5.43;4.80;;;;;;;16.62;83.83;155630.66;5071001;28;20457;-79
2022/07/11 06:13:09;;;;;;;5.00;4.40;;;;;;;16.60;84.07;155626.72;5104208;28;20438;-79
2022/07/11 06:15:36;;;;;;;5.07;3.50;;;;;;;16.66;84.37;155642.34;5103675;28;20462;-79
2022/07/11 06:18:03;;;;;;;3.97;3.67;;;;;;;16.73;83.62;155660.53;5101349;28;20441;-79
2022/07/11 06:20:31;;;;;;;4.93;3.80;;;;;;;16.73;83.77;155659.28;5108390;28;20475;-79
2022/07/11 06:22:57;;;;;;;4.57;4.17;;;;;;;16.72;82.57;155657.97;5081206;28;20477;-79
2022/07/11 06:25:24;;;;;;;6.70;4.20;;;;;;;16.78;82.88;155673.59;5086717;28;20937;-79
2022/07/11 06:27:52;;;;;;;5.30;4.80;;;;;;;16.89;83.20;155702.19;5075169;28;20823;-79
2022/07/11 06:30:19;;;;;;;3.83;3.47;;;;;;;17.07;81.84;155747.75;5073547;28;20450;-76
2022/07/11 06:32:46;;;;;;;5.00;4.50;;;;;;;17.08;81.72;155750.34;5074990;28;20434;-76
2022/07/11 06:35:21;;;;;;;4.60;4.03;;;;;;;17.19;81.62;155778.97;5073984;28;20481;-76
2022/07/11 06:37:48;;;;;;;4.50;4.10;;;;;;;17.19;81.86;155777.66;5085953;28;20528;-76
2022/07/11 06:40:17;;;;;;;4.47;4.07;;;;;;;17.22;80.48;155786.78;5092142;28;20444;-76
2022/07/11 06:42:44;;;;;;;4.60;4.20;;;;;;;17.02;80.96;155734.75;5094371;28;20472;-76
2022/07/11 06:45:12;;;;;;;4.20;3.50;;;;;;;17.17;80.56;155772.47;5081478;28;21020;-76
2022/07/11 06:47:39;;;;;;;5.63;3.50;;;;;;;17.05;81.07;155742.53;5073297;28;20430;-76
2022/07/11 06:50:07;;;;;;;4.40;4.00;;;;;;;17.15;81.38;155767.28;5072703;28;20862;-76
2022/07/11 06:52:33;;;;;;;4.43;4.03;;;;;;;17.23;80.58;155788.09;5074482;28;20432;-76
2022/07/11 06:55:00;;;;;;;4.07;3.67;;;;;;;17.25;80.45;155794.59;5105116;27;20895;-76
2022/07/11 06:57:27;;;;;;;5.10;4.60;;;;;;;17.27;79.93;155798.47;5074392;28;20433;-76
2022/07/11 06:59:54;;;;;;;4.20;3.90;;;;;;;17.22;80.68;155785.47;5107425;28;20537;-76
2022/07/11 07:02:27;;;;;;;5.00;4.23;;;;;;;17.29;80.70;155803.72;5107257;28;20541;-76
2022/07/11 07:04:54;;;;;;;5.27;4.37;;;;;;;17.39;80.29;155831.06;5105950;28;20450;-76
2022/07/11 07:07:21;;;;;;;5.63;4.10;;;;;;;17.44;80.18;155842.75;5071055;28;20496;-76
2022/07/11 07:09:47;;;;;;;4.20;3.80;;;;;;;17.64;79.61;155894.84;5074110;28;20438;-76
2022/07/11 07:12:14;;;;;;;5.30;3.77;;;;;;;17.85;78.67;155949.53;5071479;28;21068;-76
2022/07/11 07:14:42;;;;;;;5.70;4.43;;;;;;;17.91;77.97;155963.88;5073300;28;20602;-76
2022/07/11 07:17:08;;;;;;;6.73;4.03;;;;;;;18.02;76.83;155993.81;5103737;28;20549;-76
2022/07/11 07:19:37;;;;;;;4.73;4.23;;;;;;;17.85;77.65;155949.53;5070553;28;20455;-76
2022/07/11 07:22:06;;;;;;;4.30;3.90;;;;;;;18.00;77.57;155988.59;5073801;28;20951;-76
2022/07/11 07:24:33;;;;;;;4.67;3.70;;;;;;;18.02;76.40;155993.81;5057350;28;20442;-76
2022/07/11 07:27:02;;;;;;;4.20;3.87;;;;;;;18.11;76.39;156017.25;5086289;28;20447;-76
2022/07/11 07:29:29;;;;;;;5.30;4.03;;;;;;;18.21;76.57;156043.28;5056894;28;20803;-76
2022/07/11 07:31:56;;;;;;;4.10;3.33;;;;;;;18.51;76.00;156120.19;5089015;27;20450;-76
2022/07/11 07:34:22;;;;;;;5.47;3.57;;;;;;;18.80;73.94;156195.75;5063616;28;20906;-77
2022/07/11 07:36:59;;;;;;;4.00;3.43;;;;;;;19.04;72.63;156256.97;5072861;28;20449;-76
2022/07/11 07:39:25;;;;;;;4.20;3.73;;;;;;;19.27;72.38;156316.91;5105832;28;20782;-79
2022/07/11 07:41:59;;;;;;;3.67;3.37;;;;;;;19.65;71.69;156413.44;5104725;28;20482;-79
2022/07/11 07:44:29;;;;;;;4.60;3.60;;;;;;;19.84;70.29;156463.00;5072043;28;20434;-74
2022/07/11 07:46:56;;;;;;;4.03;3.40;;;;;;;20.17;69.06;156547.75;5103316;28;20449;-74
2022/07/11 07:49:25;;;;;;;6.40;3.57;;;;;;;20.50;67.42;156633.88;5071069;28;20477;-74
2022/07/11 07:51:52;;;;;;;3.50;2.97;;;;;;;20.67;65.77;156676.94;5054301;28;20454;-75
2022/07/11 07:54:20;;;;;;;3.80;3.40;;;;;;;20.87;65.65;156730.41;5105068;28;20454;-74
2022/07/11 07:56:46;;;;;;;3.30;3.00;;;;;;;20.99;65.51;156761.75;5073193;28;20529;-74
2022/07/11 07:59:13;;;;;;;5.30;3.03;;;;;;;20.94;65.06;156748.69;5072440;28;20481;-78
2022/07/11 08:01:41;;;;;;;3.03;2.73;;;;;;;21.12;64.46;156795.75;5073751;28;21006;-75
2022/07/11 08:04:09;;;;;;;4.53;3.27;;;;;;;21.89;62.80;156994.19;5084625;28;20912;-75
2022/07/11 08:06:36;;;;;;;3.83;3.00;;;;;;;21.90;60.60;156995.47;5107935;27;20545;-76
2022/07/11 08:09:03;;;;;;;4.23;3.50;;;;;;;21.66;60.37;156935.38;5064476;28;20458;-75
2022/07/11 08:11:32;;;;;;;2.80;2.40;;;;;;;21.70;60.82;156945.84;5105949;28;20557;-75
2022/07/11 08:14:00;;;;;;;2.50;2.30;;;;;;;21.77;60.53;156964.09;5072682;28;20434;-76
2022/07/11 08:16:28;;;;;;;2.10;1.90;;;;;;;21.40;59.15;156867.50;5104491;28;20537;-75
2022/07/11 08:18:55;;;;;;;1.30;1.13;;;;;;;20.97;57.71;156756.50;5071629;28;20454;-76
2022/07/11 08:21:22;;;;;;;1.27;1.13;;;;;;;20.85;58.03;156723.91;5091027;28;20497;-76
2022/07/11 08:23:49;;;;;;;1.40;1.30;;;;;;;21.10;58.86;156789.22;5072616;28;20427;-76
2022/07/11 08:26:16;;;;;;;1.80;1.13;;;;;;;21.22;58.02;156820.53;5071021;28;20477;-76
2022/07/11 08:28:44;;;;;;;2.03;1.70;;;;;;;20.96;58.69;156753.94;5041027;28;20450;-76
2022/07/11 08:31:10;;;;;;;1.80;1.57;;;;;;;21.18;59.15;156810.09;5060077;28;20438;-76
2022/07/11 08:33:37;;;;;;;2.13;1.90;;;;;;;21.40;58.87;156867.50;5072355;28;20430;-76
2022/07/11 08:36:06;;;;;;;2.10;1.63;;;;;;;21.95;56.40;157009.84;5070630;28;20512;-76
2022/07/11 08:38:33;;;;;;;1.60;1.30;;;;;;;22.05;55.80;157034.69;5054860;28;20438;-76
2022/07/11 08:40:59;;;;;;;1.70;1.40;;;;;;;22.53;55.62;157160.03;5070844;28;20956;-76
2022/07/11 08:43:28;;;;;;;2.10;1.67;;;;;;;22.63;54.56;157186.25;5071963;28;20433;-76
2022/07/11 08:45:57;;;;;;;1.90;1.57;;;;;;;23.00;54.56;157282.94;5068571;28;20463;-78
2022/07/11 08:48:24;;;;;;;1.90;1.60;;;;;;;23.41;52.65;157387.50;5070956;28;20445;-76
2022/07/11 08:50:51;;;;;;;1.30;1.03;;;;;;;23.63;52.11;157445.03;5071554;28;20550;-75
2022/07/11 08:53:18;;;;;;;1.40;1.23;;;;;;;23.76;49.26;157479.00;5071107;28;20450;-75
2022/07/11 08:55:45;;;;;;;5.93;1.80;;;;;;;23.19;51.40;157331.28;5078975;28;20576;-75
2022/07/11 08:58:12;;;;;;;1.97;1.77;;;;;;;22.30;53.61;157099.94;5104264;28;20470;-76
2022/07/11 09:00:39;;;;;;;1.90;1.60;;;;;;;21.93;53.89;157004.63;5071746;28;20449;-75
2022/07/11 09:03:08;;;;;;;1.80;1.67;;;;;;;22.13;54.35;157056.88;5102022;28;21005;-75
2022/07/11 09:05:34;;;;;;;2.70;1.43;;;;;;;22.23;53.43;157083.00;5069430;28;20582;-75
2022/07/11 09:08:01;;;;;;;2.13;1.47;;;;;;;22.53;53.64;157160.03;5060786;28;20557;-75
2022/07/11 09:10:28;;;;;;;2.00;1.30;;;;;;;22.84;52.52;157241.13;5071629;28;20779;-76
2022/07/11 09:13:02;;;;;;;3.20;1.37;;;;;;;23.49;51.00;157408.41;5071045;28;20441;-75
2022/07/11 09:15:36;;;;;;;2.13;1.30;;;;;;;23.88;48.12;157509.09;5068162;28;20502;-75
2022/07/11 09:18:04;;;;;;;3.37;1.30;;;;;;;24.09;48.47;157565.34;5068995;28;20469;-76
2022/07/11 09:26:21;;;;;;;2.00;1.33;;;;;;;23.97;47.34;157533.91;5086418;28;20545;-75
2022/07/11 09:28:59;;;;;;;1.60;1.30;;;;;;;23.47;49.54;157404.50;5050167;28;20458;-76
2022/07/11 09:31:28;;;;;;;2.00;1.70;;;;;;;24.31;48.64;157620.25;5051894;28;20541;-75
2022/07/11 09:33:59;;;;;;;1.80;1.30;;;;;;;25.17;45.56;157845.34;5071476;28;20441;-76
2022/07/11 09:36:36;;;;;;;2.40;1.77;;;;;;;24.38;47.78;157638.59;5101830;28;20577;-75
2022/07/11 09:39:04;;;;;;;2.10;1.90;;;;;;;23.69;49.64;157460.72;5070090;28;20433;-75
2022/07/11 09:41:32;;;;;;;2.87;1.67;;;;;;;24.34;48.27;157628.13;5072615;28;20481;-76
2022/07/11 09:44:10;;;;;;;3.20;1.70;;;;;;;25.03;47.28;157808.69;5079911;28;20830;-76
2022/07/11 09:46:37;;;;;;;1.80;1.67;;;;;;;24.89;47.37;157772.03;5102780;28;20503;-76
2022/07/11 09:49:04;;;;;;;3.70;1.87;;;;;;;24.80;47.87;157748.53;5071641;28;20431;-76
2022/07/11 09:51:32;;;;;;;3.23;1.90;;;;;;;24.87;46.63;157766.84;5086600;28;20881;-76
2022/07/11 09:54:01;;;;;;;2.87;1.60;;;;;;;24.75;45.76;157735.41;5072591;28;20449;-76
2022/07/11 09:56:32;;;;;;;1.90;1.50;;;;;;;23.95;46.23;157528.69;5070927;28;20477;-76
2022/07/11 09:59:03;;;;;;;1.50;1.40;;;;;;;23.58;47.16;157431.97;5076131;28;20560;-76
2022/07/11 10:01:31;;;;;;;2.67;1.97;;;;;;;23.59;48.58;157434.53;5075479;28;20499;-76
2022/07/11 10:03:58;;;;;;;1.97;1.40;;;;;;;23.39;48.52;157382.28;5111300;27;20518;-76
2022/07/11 10:06:25;;;;;;;3.40;1.80;;;;;;;23.83;48.51;157497.28;5094927;28;20437;-76
2022/07/11 10:08:52;;;;;;;1.77;1.50;;;;;;;23.92;48.34;157519.53;5119145;27;20473;-76
2022/07/11 10:11:21;;;;;;;2.27;1.70;;;;;;;23.73;49.46;157469.84;5090313;28;20889;-76
2022/07/11 10:13:48;;;;;;;2.83;1.63;;;;;;;23.91;48.82;157518.22;5075254;28;20937;-76
2022/07/11 10:16:21;;;;;;;1.73;1.43;;;;;;;23.93;47.79;157522.16;5107547;28;20562;-76
2022/07/11 10:18:54;;;;;;;1.27;1.10;;;;;;;23.52;45.93;157416.25;5073380;28;20446;-76
2022/07/11 10:21:25;;;;;;;1.73;1.60;;;;;;;23.54;49.73;157421.47;5057034;28;20478;-76
2022/07/11 10:23:57;;;;;;;2.00;1.57;;;;;;;23.84;48.50;157498.63;5071447;28;20450;-76
2022/07/11 10:26:31;;;;;;;2.80;1.60;;;;;;;24.05;48.31;157554.84;5107781;28;20460;-76
2022/07/11 10:29:03;;;;;;;3.40;1.47;;;;;;;24.03;47.37;157549.63;5075625;28;20468;-76
2022/07/11 10:31:30;;;;;;;3.20;1.70;;;;;;;23.94;48.08;157524.75;5106152;28;20807;-76
2022/07/11 10:34:03;;;;;;;3.07;1.37;;;;;;;23.69;47.92;157459.41;5061956;28;20418;-76
2022/07/11 10:36:31;;;;;;;2.27;1.70;;;;;;;23.37;49.06;157377.06;5074623;28;20589;-76
2022/07/11 10:39:16;;;;;;;3.10;1.93;;;;;;;23.51;48.86;157413.69;5085713;28;20444;-76
2022/07/11 10:41:44;;;;;;;1.70;1.57;;;;;;;23.17;49.41;157324.69;5109250;27;20454;-76
2022/07/11 10:44:11;;;;;;;2.17;1.97;;;;;;;23.39;50.15;157382.28;5074949;28;20442;-76
2022/07/11 10:46:38;;;;;;;2.50;1.50;;;;;;;23.89;48.68;157513.00;5107480;28;20437;-76
2022/07/11 10:49:10;;;;;;;1.77;1.50;;;;;;;24.05;47.35;157554.84;5106062;28;20560;-76
2022/07/11 10:51:46;;;;;;;1.83;1.50;;;;;;;24.07;47.56;157560.06;5107177;28;20473;-76
2022/07/11 10:54:19;;;;;;;3.37;1.77;;;;;;;23.49;48.98;157408.41;5112459;27;20437;-76
2022/07/11 10:57:06;;;;;;;4.60;1.73;;;;;;;22.87;50.09;157248.97;5092978;28;20487;-76
2022/07/11 10:59:33;;;;;;;1.73;1.63;;;;;;;22.83;50.37;157238.47;5114686;27;20557;-76
2022/07/11 11:02:11;;;;;;;1.97;1.73;;;;;;;22.90;50.76;157256.75;5105294;28;20485;-76
2022/07/11 11:04:57;;;;;;;2.40;1.90;;;;;;;22.90;50.54;157256.75;5073269;28;20456;-76
2022/07/11 11:07:35;;;;;;;1.70;1.60;;;;;;;23.27;50.04;157350.88;5071972;28;20537;-76
2022/07/11 11:10:05;;;;;;;3.40;1.80;;;;;;;22.98;49.96;157276.41;5104489;28;20471;-76
2022/07/11 11:13:09;;;;;;;1.60;1.47;;;;;;;22.79;50.67;157228.06;5078927;28;20443;-76
2022/07/11 11:15:41;;;;;;;1.63;1.47;;;;;;;22.97;50.63;157273.75;5080911;28;20477;-76
2022/07/11 11:18:34;;;;;;;1.97;1.80;;;;;;;23.21;50.60;157336.50;5070076;28;20501;-76
2022/07/11 11:21:24;;;;;;;2.20;1.67;;;;;;;23.35;50.75;157371.78;5092168;28;20484;-76
2022/07/11 11:24:08;;;;;;;3.90;2.20;;;;;;;22.90;51.28;157255.50;5105418;28;20446;-76
2022/07/11 11:26:49;;;;;;;2.00;1.80;;;;;;;22.91;51.56;157258.06;5100682;28;20468;-76
2022/07/11 11:29:21;;;;;;;2.20;1.80;;;;;;;22.53;51.87;157158.75;5105357;28;20489;-76
2022/07/11 11:31:54;;;;;;;2.10;1.77;;;;;;;22.37;52.75;157119.53;5080309;28;20441;-76
2022/07/11 11:34:21;;;;;;;2.40;1.83;;;;;;;22.48;53.52;157145.69;5088947;28;20446;-76
2022/07/11 11:36:53;;;;;;;2.27;1.70;;;;;;;22.81;52.26;157231.94;5073231;28;20482;-75
2022/07/11 11:39:25;;;;;;;2.40;1.77;;;;;;;23.00;52.63;157282.94;5072218;28;20537;-76